createdAt,value
2023-04-25T00:01:34.839Z,99062.84
2023-04-25T00:04:39.478Z,99058.25
2023-04-25T00:07:43.770Z,99058.81
2023-04-25T00:10:46.244Z,99052.91
2023-04-25T00:13:49.722Z,99065.19
2023-04-25T00:16:53.565Z,99060.88
2023-04-25T00:19:55.931Z,99061.19
2023-04-25T00:22:58.242Z,99043.81
2023-04-25T00:26:00.713Z,99052.91
2023-04-25T00:29:03.368Z,99045.66
2023-04-25T00:32:05.718Z,99044.31
2023-04-25T00:35:08.320Z,99046.72
2023-04-25T00:38:10.938Z,99052.88
2023-04-25T00:41:13.399Z,99041.66
2023-04-25T00:44:18.139Z,99033.59
2023-04-25T00:47:20.703Z,99044.84
2023-04-25T00:50:23.345Z,99028.78
2023-04-25T00:53:27.296Z,99022.44
2023-04-25T00:56:29.941Z,99020.53
2023-04-25T00:59:32.545Z,99022.38
2023-04-25T01:02:36.721Z,99028.28
2023-04-25T01:05:39.328Z,99023.19
2023-04-25T01:08:41.772Z,99017.06
2023-04-25T01:11:44.121Z,99014.47
2023-04-25T01:14:47.087Z,99010.72
2023-04-25T01:17:50.489Z,99019.22
2023-04-25T01:20:53.838Z,99016.00
2023-04-25T01:23:57.885Z,99023.97
2023-04-25T01:27:01.568Z,99024.50
2023-04-25T01:30:04.815Z,99015.41
2023-04-25T01:33:09.519Z,99012.78
2023-04-25T01:36:12.106Z,99011.44
2023-04-25T01:39:14.423Z,98999.97
2023-04-25T01:42:16.821Z,99013.88
2023-04-25T01:45:19.165Z,99007.47
2023-04-25T01:48:21.511Z,99003.44
2023-04-25T01:51:23.874Z,99005.84
2023-04-25T01:54:26.242Z,98993.53
2023-04-25T01:57:29.005Z,99020.28
2023-04-25T02:00:31.626Z,99004.53
2023-04-25T02:03:34.647Z,98996.78
2023-04-25T02:06:39.106Z,99003.19
2023-04-25T02:09:42.755Z,99003.94
2023-04-25T02:12:47.375Z,99001.81
2023-04-25T02:15:49.757Z,99000.44
2023-04-25T02:18:55.129Z,98991.41
2023-04-25T02:21:58.274Z,98996.78
2023-04-25T02:25:01.910Z,98995.41
2023-04-25T02:28:04.420Z,99003.19
2023-04-25T02:31:07.003Z,99008.53
2023-04-25T02:34:09.460Z,99008.03
2023-04-25T02:37:13.607Z,99012.81
2023-04-25T02:40:16.121Z,98998.69
2023-04-25T02:43:18.463Z,99012.06
2023-04-25T02:46:32.228Z,99003.50
2023-04-25T02:49:40.507Z,98991.72
2023-04-25T02:52:42.856Z,98993.59
2023-04-25T02:55:59.313Z,98990.31
2023-04-25T02:59:01.829Z,98989.25
2023-04-25T03:02:04.996Z,98994.84
2023-04-25T03:05:08.400Z,98978.22
2023-04-25T03:08:11.571Z,98977.72
2023-04-25T03:11:14.476Z,98983.63
2023-04-25T03:14:17.871Z,98990.84
2023-04-25T03:17:20.389Z,98983.06
2023-04-25T03:20:22.796Z,98983.84
2023-04-25T03:23:25.102Z,98985.84
2023-04-25T03:26:27.545Z,98986.25
2023-04-25T03:29:29.881Z,98981.97
2023-04-25T03:32:33.278Z,98991.84
2023-04-25T03:35:35.668Z,98974.53
2023-04-25T03:38:38.157Z,98982.53
2023-04-25T03:41:42.074Z,98985.03
2023-04-25T03:44:49.360Z,98987.13
2023-04-25T03:47:51.955Z,98993.53
2023-04-25T03:50:55.132Z,99000.63
2023-04-25T03:53:57.582Z,98987.63
2023-04-25T03:57:18.681Z,98996.81
2023-04-25T04:00:21.085Z,98997.53
2023-04-25T04:03:27.717Z,99002.38
2023-04-25T04:06:30.747Z,99008.59
2023-04-25T04:09:40.086Z,99009.69
2023-04-25T04:12:51.070Z,99005.19
2023-04-25T04:15:53.598Z,99003.59
2023-04-25T04:18:56.123Z,99016.44
2023-04-25T04:21:58.898Z,99012.50
2023-04-25T04:25:01.281Z,99010.00
2023-04-25T04:28:23.109Z,99010.34
2023-04-25T04:31:36.902Z,99017.81
2023-04-25T04:34:42.187Z,99019.72
2023-04-25T04:37:46.934Z,99035.75
2023-04-25T04:40:51.436Z,99026.38
2023-04-25T04:44:02.803Z,99021.66
2023-04-25T04:47:15.314Z,99028.59
2023-04-25T04:50:36.718Z,99024.31
2023-04-25T04:53:41.798Z,99034.69
2023-04-25T04:57:02.724Z,99034.13
2023-04-25T05:00:16.752Z,99018.91
2023-04-25T05:03:19.162Z,99029.03
2023-04-25T05:06:53.777Z,99042.16
2023-04-25T05:10:20.298Z,99044.81
2023-04-25T05:13:41.349Z,99027.16
2023-04-25T05:17:01.767Z,99034.69
2023-04-25T05:20:15.089Z,99029.38
2023-04-25T05:23:43.622Z,99036.84
2023-04-25T05:27:21.467Z,99035.56
2023-04-25T05:30:44.440Z,99034.75
2023-04-25T05:33:53.503Z,99047.88
2023-04-25T05:36:56.988Z,99035.84
2023-04-25T05:40:01.095Z,99035.50
2023-04-25T05:43:22.481Z,99027.00
2023-04-25T05:46:44.903Z,99035.00
2023-04-25T05:50:06.250Z,99035.22
2023-04-25T05:53:46.807Z,99038.75
2023-04-25T05:56:50.963Z,99034.25
2023-04-25T05:59:54.034Z,99033.19
2023-04-25T06:02:57.380Z,99047.06
2023-04-25T06:05:59.966Z,99030.72
2023-04-25T06:09:02.478Z,99048.34
2023-04-25T06:12:07.940Z,99052.63
2023-04-25T06:15:26.659Z,99050.63
2023-04-25T06:18:31.156Z,99062.72
2023-04-25T06:21:33.792Z,99064.66
2023-04-25T06:24:36.512Z,99052.72
2023-04-25T06:27:40.298Z,99052.16
2023-04-25T06:30:42.654Z,99059.38
2023-04-25T06:33:49.749Z,99060.94
2023-04-25T06:36:52.513Z,99057.53
2023-04-25T06:39:54.794Z,99057.78
2023-04-25T06:42:57.230Z,99070.63
2023-04-25T06:46:22.834Z,99056.47
2023-04-25T06:49:25.925Z,99077.03
2023-04-25T06:52:28.336Z,99061.53
2023-04-25T06:55:31.141Z,99078.66
2023-04-25T06:59:01.458Z,99063.94
2023-04-25T07:02:07.244Z,99071.94
2023-04-25T07:05:10.180Z,99065.69
2023-04-25T07:08:12.689Z,99071.88
2023-04-25T07:11:15.075Z,99061.78
2023-04-25T07:14:17.497Z,99069.78
2023-04-25T07:17:19.845Z,99084.50
2023-04-25T07:20:22.284Z,99071.88
2023-04-25T07:23:24.643Z,99077.75
2023-04-25T07:26:27.465Z,99068.09
2023-04-25T07:29:53.111Z,99068.28
2023-04-25T07:32:58.421Z,99065.50
2023-04-25T07:36:01.397Z,99071.88
2023-04-25T07:39:04.310Z,99081.19
2023-04-25T07:42:09.089Z,99082.22
2023-04-25T07:45:12.674Z,99080.09
2023-04-25T07:48:22.814Z,99091.28
2023-04-25T07:51:28.963Z,99084.28
2023-04-25T07:54:34.984Z,99084.75
2023-04-25T07:57:44.880Z,99083.53
2023-04-25T08:00:47.596Z,99077.94
2023-04-25T08:04:10.018Z,99071.03
2023-04-25T08:07:36.289Z,99079.78
2023-04-25T08:10:42.236Z,99068.31
2023-04-25T08:13:45.349Z,99080.31
2023-04-25T08:16:48.524Z,99076.41
2023-04-25T08:19:51.663Z,99070.88
2023-04-25T08:23:00.602Z,99069.50
2023-04-25T08:26:21.443Z,99077.88
2023-04-25T08:29:26.986Z,99067.28
2023-04-25T08:32:31.082Z,99062.19
2023-04-25T08:35:52.238Z,99069.25
2023-04-25T08:38:55.614Z,99063.00
2023-04-25T08:41:58.508Z,99072.38
2023-04-25T08:45:04.383Z,99079.38
2023-04-25T08:48:14.126Z,99087.59
2023-04-25T08:51:25.824Z,99091.22
2023-04-25T08:54:35.410Z,99089.00
2023-04-25T08:57:43.872Z,99100.91
2023-04-25T09:00:48.029Z,99088.50
2023-04-25T09:03:51.599Z,99102.47
2023-04-25T09:06:54.166Z,99094.34
2023-04-25T09:09:56.671Z,99091.72
2023-04-25T09:13:13.753Z,99100.50
2023-04-25T09:17:00.714Z,99104.03
2023-04-25T09:20:16.232Z,99101.25
2023-04-25T09:23:20.947Z,99093.47
2023-04-25T09:26:23.246Z,99098.41
2023-04-25T09:29:34.275Z,99094.66
2023-04-25T09:32:36.823Z,99084.81
2023-04-25T09:35:54.054Z,99082.06
2023-04-25T09:39:17.475Z,99088.06
2023-04-25T09:42:29.961Z,99082.31
2023-04-25T09:45:32.695Z,99079.16
2023-04-25T09:48:35.899Z,99087.38
2023-04-25T09:51:39.827Z,99069.97
2023-04-25T09:54:43.529Z,99084.25
2023-04-25T09:57:52.981Z,99093.22
2023-04-25T10:00:56.996Z,99074.34
2023-04-25T10:04:12.311Z,99083.69
2023-04-25T10:07:41.868Z,99069.34
2023-04-25T10:10:51.852Z,99075.34
2023-04-25T10:13:54.320Z,99072.75
2023-04-25T10:17:24.646Z,99070.47
2023-04-25T10:20:49.598Z,99069.94
2023-04-25T10:23:52.852Z,99061.28
2023-04-25T10:26:55.480Z,99079.06
2023-04-25T10:30:16.986Z,99079.28
2023-04-25T10:33:22.301Z,99069.31
2023-04-25T10:46:26.405Z,99079.72
2023-04-25T10:49:39.455Z,99091.09
2023-04-25T10:52:41.827Z,99076.81
2023-04-25T10:55:51.173Z,99091.69
2023-04-25T10:59:04.518Z,99096.50
2023-04-25T11:02:14.207Z,99103.78
2023-04-25T11:05:50.807Z,99093.25
2023-04-25T11:09:02.060Z,99093.91
2023-04-25T11:12:04.834Z,99095.34
2023-04-25T11:15:08.532Z,99105.94
2023-04-25T11:18:11.064Z,99093.97
2023-04-25T11:21:14.551Z,99109.63
2023-04-25T11:24:20.253Z,99106.91
2023-04-25T11:27:22.880Z,99113.63
2023-04-25T11:30:26.772Z,99120.31
2023-04-25T11:33:29.108Z,99124.53
2023-04-25T11:36:31.861Z,99110.25
2023-04-25T11:39:34.530Z,99128.06
2023-04-25T11:42:43.899Z,99116.72
2023-04-25T11:45:49.039Z,99120.28
2023-04-25T11:48:52.432Z,99126.06
2023-04-25T11:51:55.016Z,99119.69
2023-04-25T11:54:58.110Z,99124.50
2023-04-25T11:58:01.722Z,99129.06
2023-04-25T12:01:04.181Z,99138.81
2023-04-25T12:04:13.677Z,99143.41
2023-04-25T12:07:16.353Z,99144.78
2023-04-25T12:10:19.923Z,99144.19
2023-04-25T12:13:27.003Z,99132.34
2023-04-25T12:16:29.385Z,99145.59
2023-04-25T12:19:35.880Z,99139.78
2023-04-25T12:22:38.607Z,99139.44
2023-04-25T12:25:43.033Z,99139.63
2023-04-25T12:28:48.214Z,99143.06
2023-04-25T12:31:52.388Z,99133.09
2023-04-25T12:34:54.803Z,99128.28
2023-04-25T12:37:57.674Z,99116.69
2023-04-25T12:40:59.984Z,99124.59
2023-04-25T12:44:02.290Z,99116.63
2023-04-25T12:47:05.162Z,99121.53
2023-04-25T12:50:07.986Z,99118.28
2023-04-25T12:53:10.872Z,99103.16
2023-04-25T12:56:13.228Z,99110.09
2023-04-25T12:59:15.675Z,99110.13
2023-04-25T13:02:18.075Z,99114.63
2023-04-25T13:05:20.419Z,99116.63
2023-04-25T13:08:22.705Z,99103.66
2023-04-25T13:11:25.144Z,99120.50
2023-04-25T13:14:27.540Z,99112.69
2023-04-25T13:17:29.816Z,99097.31
2023-04-25T13:20:32.580Z,99096.38
2023-04-25T13:23:34.863Z,99094.28
2023-04-25T13:26:37.521Z,99094.75
2023-04-25T13:29:41.540Z,99098.56
2023-04-25T13:32:44.120Z,99095.84
2023-04-25T13:35:54.875Z,99094.66
2023-04-25T13:38:57.200Z,99095.38
2023-04-25T13:41:59.524Z,99091.53
2023-04-25T13:45:02.197Z,99094.44
2023-04-25T13:48:04.679Z,99083.97
2023-04-25T13:51:07.380Z,99079.03
2023-04-25T13:54:09.799Z,99083.53
2023-04-25T13:57:12.578Z,99081.28
2023-04-25T14:00:15.418Z,99076.13
2023-04-25T14:03:17.980Z,99068.44
2023-04-25T14:06:23.921Z,99073.75
2023-04-25T14:09:28.741Z,99085.47
2023-04-25T14:12:33.474Z,99059.53
2023-04-25T14:15:36.077Z,99090.09
2023-04-25T14:18:38.441Z,99076.94
2023-04-25T14:21:41.963Z,99090.16
2023-04-25T14:24:45.331Z,99085.25
2023-04-25T14:27:50.761Z,99088.34
2023-04-25T14:30:53.135Z,99080.75
2023-04-25T14:33:57.660Z,99079.75
2023-04-25T14:37:01.817Z,99080.28
2023-04-25T14:40:05.661Z,99091.72
2023-04-25T14:43:07.957Z,99074.75
2023-04-25T14:46:10.285Z,99075.13
2023-04-25T14:49:12.629Z,99070.66
2023-04-25T14:52:14.927Z,99070.72
2023-04-25T14:55:17.678Z,99071.88
2023-04-25T14:58:20.042Z,99070.22
2023-04-25T15:01:23.201Z,99072.91
2023-04-25T15:04:25.632Z,99063.41
2023-04-25T15:07:28.003Z,99087.25
2023-04-25T15:10:30.368Z,99092.03
2023-04-25T15:13:33.106Z,99093.94
2023-04-25T15:16:35.522Z,99080.44
2023-04-25T15:19:37.855Z,99098.56
2023-04-25T15:22:42.155Z,99097.69
2023-04-25T15:25:44.729Z,99104.22
2023-04-25T15:28:47.392Z,99086.50
2023-04-25T15:31:49.725Z,99097.03
2023-04-25T15:34:52.254Z,99107.69
2023-04-25T15:37:54.645Z,99102.94
2023-04-25T15:40:56.989Z,99097.13
2023-04-25T15:44:00.959Z,99102.06
2023-04-25T15:47:03.311Z,99098.69
2023-04-25T15:50:08.407Z,99097.84
2023-04-25T15:53:11.236Z,99083.28
2023-04-25T15:56:13.587Z,99091.06
2023-04-25T15:59:15.997Z,99098.31
2023-04-25T16:02:18.975Z,99100.28
2023-04-25T16:05:21.536Z,99102.69
2023-04-25T16:08:23.905Z,99098.25
2023-04-25T16:11:26.293Z,99100.84
2023-04-25T16:14:28.568Z,99112.56
2023-04-25T16:17:33.349Z,99109.47
2023-04-25T16:20:35.730Z,99113.91
2023-04-25T16:23:38.276Z,99110.41
2023-04-25T16:26:44.045Z,99112.53
2023-04-25T16:29:46.602Z,99115.22
2023-04-25T16:32:48.898Z,99120.13
2023-04-25T16:35:52.591Z,99116.09
2023-04-25T16:38:54.977Z,99123.09
2023-04-25T16:41:57.348Z,99122.84
2023-04-25T16:44:59.757Z,99126.41
2023-04-25T16:48:02.177Z,99122.38
2023-04-25T16:51:04.657Z,99119.50
2023-04-25T16:54:07.033Z,99120.41
2023-04-25T16:57:11.502Z,99123.94
2023-04-25T17:00:14.771Z,99144.81
2023-04-25T17:03:17.327Z,99134.69
2023-04-25T17:06:19.910Z,99146.19
2023-04-25T17:09:22.329Z,99143.50
2023-04-25T17:12:24.789Z,99163.28
2023-04-25T17:15:27.243Z,99144.81
2023-04-25T17:18:29.562Z,99158.50
2023-04-25T17:21:32.016Z,99152.94
2023-04-25T17:24:34.387Z,99157.44
2023-04-25T17:27:37.065Z,99142.47
2023-04-25T17:30:40.121Z,99169.19
2023-04-25T17:33:42.812Z,99169.50
2023-04-25T17:36:46.075Z,99164.19
2023-04-25T17:39:48.525Z,99167.94
2023-04-25T17:42:51.290Z,99162.63
2023-04-25T17:45:54.100Z,99176.56
2023-04-25T17:49:00.463Z,99188.84
2023-04-25T17:52:06.540Z,99187.25
2023-04-25T17:55:09.432Z,99185.97
2023-04-25T17:58:11.847Z,99191.84
2023-04-25T18:01:14.231Z,99192.91
2023-04-25T18:04:17.649Z,99193.72
2023-04-25T18:07:20.011Z,99194.00
2023-04-25T18:10:22.345Z,99211.91
2023-04-25T18:13:25.761Z,99219.44
2023-04-25T18:16:29.515Z,99218.06
2023-04-25T18:19:31.931Z,99223.69
2023-04-25T18:22:34.726Z,99226.91
2023-04-25T18:25:37.129Z,99236.53
2023-04-25T18:28:39.498Z,99230.66
2023-04-25T18:31:44.506Z,99234.13
2023-04-25T18:34:50.040Z,99248.06
2023-04-25T18:37:54.870Z,99250.47
2023-04-25T18:41:12.958Z,99262.78
2023-04-25T18:44:22.458Z,99247.50
2023-04-25T18:47:25.177Z,99252.06
2023-04-25T18:50:27.499Z,99260.63
2023-04-25T18:53:29.964Z,99269.19
2023-04-25T18:56:33.096Z,99261.94
2023-04-25T18:59:36.238Z,99275.81
2023-04-25T19:02:38.918Z,99278.53
2023-04-25T19:05:41.559Z,99268.59
2023-04-25T19:08:43.902Z,99268.88
2023-04-25T19:11:46.345Z,99273.41
2023-04-25T19:14:50.373Z,99278.53
2023-04-25T19:17:52.706Z,99282.44
2023-04-25T19:20:55.090Z,99282.47
2023-04-25T19:23:57.637Z,99274.66
2023-04-25T19:27:00.022Z,99284.03
2023-04-25T19:30:08.113Z,99277.06
2023-04-25T19:33:10.743Z,99287.28
2023-04-25T19:36:13.103Z,99285.66
2023-04-25T19:39:16.043Z,99284.06
2023-04-25T19:42:19.575Z,99297.16
2023-04-25T19:45:22.075Z,99305.41
2023-04-25T19:48:24.474Z,99299.47
2023-04-25T19:51:29.758Z,99283.75
2023-04-25T19:54:32.542Z,99291.56
2023-04-25T19:57:36.977Z,99294.47
2023-04-25T20:00:40.199Z,99283.69
2023-04-25T20:03:42.810Z,99275.66
2023-04-25T20:06:45.275Z,99284.47
2023-04-25T20:09:47.865Z,99291.59
2023-04-25T20:12:50.177Z,99294.50
2023-04-25T20:15:53.065Z,99280.88
2023-04-25T20:18:55.605Z,99279.25
2023-04-25T20:21:58.117Z,99289.81
2023-04-25T20:25:00.507Z,99287.00
2023-04-25T20:28:02.833Z,99276.69
2023-04-25T20:31:05.421Z,99292.44
2023-04-25T20:34:07.778Z,99289.59
2023-04-25T20:37:10.092Z,99284.81
2023-04-25T20:40:12.718Z,99286.41
2023-04-25T20:43:15.012Z,99293.75
2023-04-25T20:46:17.805Z,99304.25
2023-04-25T20:49:20.170Z,99307.28
2023-04-25T20:52:23.950Z,99303.78
2023-04-25T20:55:27.128Z,99307.50
2023-04-25T20:58:29.536Z,99298.28
2023-04-25T21:01:32.088Z,99302.56
2023-04-25T21:04:34.502Z,99339.28
2023-04-25T21:07:37.828Z,99328.25
2023-04-25T21:10:40.197Z,99342.53
2023-04-25T21:13:42.811Z,99342.19
2023-04-25T21:16:45.103Z,99334.53
2023-04-25T21:19:47.437Z,99349.19
2023-04-25T21:22:53.765Z,99354.69
2023-04-25T21:25:56.783Z,99350.06
2023-04-25T21:28:59.055Z,99349.16
2023-04-25T21:32:01.524Z,99353.34
2023-04-25T21:35:04.034Z,99345.34
2023-04-25T21:38:07.626Z,99364.06
2023-04-25T21:41:09.871Z,99351.19
2023-04-25T21:44:12.874Z,99347.56
2023-04-25T21:47:15.283Z,99354.28
2023-04-25T21:50:17.955Z,99360.75
2023-04-25T21:53:20.202Z,99359.19
2023-04-25T21:56:23.160Z,99372.38
2023-04-25T21:59:25.994Z,99359.16
2023-04-25T22:02:29.849Z,99369.41
2023-04-25T22:05:34.113Z,99367.69
2023-04-25T22:08:36.607Z,99374.13
2023-04-25T22:11:41.022Z,99372.66
2023-04-25T22:14:44.610Z,99383.09
2023-04-25T22:17:47.363Z,99379.25
2023-04-25T22:20:49.774Z,99373.06
2023-04-25T22:23:53.022Z,99383.34
2023-04-25T22:26:56.932Z,99387.88
2023-04-25T22:29:59.298Z,99393.16
2023-04-25T22:33:01.671Z,99388.31
2023-04-25T22:36:04.438Z,99378.97
2023-04-25T22:39:06.804Z,99387.91
2023-04-25T22:42:09.209Z,99396.34
2023-04-25T22:45:12.365Z,99397.44
2023-04-25T22:48:14.779Z,99392.28
2023-04-25T22:51:17.146Z,99394.56
2023-04-25T22:54:19.520Z,99400.59
2023-04-25T22:57:21.870Z,99412.31
2023-04-25T23:00:26.324Z,99405.97
2023-04-25T23:03:29.056Z,99395.78
2023-04-25T23:06:31.588Z,99406.88
2023-04-25T23:09:34.486Z,99400.66
2023-04-25T23:12:36.958Z,99398.38
2023-04-25T23:15:40.404Z,99405.50
2023-04-25T23:18:42.804Z,99412.75
2023-04-25T23:21:45.262Z,99404.34
2023-04-25T23:24:47.530Z,99412.59
2023-04-25T23:27:49.913Z,99417.69
2023-04-25T23:30:52.728Z,99420.53
2023-04-25T23:33:55.070Z,99421.19
2023-04-25T23:36:58.182Z,99415.03
2023-04-25T23:40:00.490Z,99416.25
2023-04-25T23:43:03.578Z,99428.50
2023-04-25T23:46:06.253Z,99427.59
2023-04-25T23:49:08.801Z,99424.66
2023-04-25T23:52:11.915Z,99415.47
2023-04-25T23:55:15.077Z,99427.19
2023-04-25T23:58:17.364Z,99426.31
